Sarasota, FL

7:36 PM EST on March 06, 2015 (GMT -0500)
Oak Shores | Change Station
CLOSE
Current Station
Personal Weather Station
Location: Sarasota, FL
Elevation: 26 ft
Nearby Weather Stations

Elev 26 ft 27.33 °N, 82.50 °W | Updated 21 seconds ago

Overcast
Overcast
71.1 °F
Feels Like 71 °F
N
3.8
Wind Variable Wind from East
Gusts 6.9 mph

Today
High -- | Low -- °F
--% Chance of Precip.
Yesterday
High -- | Low -- °F
Precip. -- in
6:49 AM 6:33 PM
Full, 99% visible
Pressure 30.18 in
Visibility 10.0 miles
Clouds Mostly Cloudy 1400 ft
Mostly Cloudy 4500 ft
Overcast 6000 ft
Heat Index 71 °F
Dew Point 65 °F
Humidity 81%
Rainfall in
Snow Depth Not available.
UV 0 out of 12
Pollen 9.90 out of 12
Air Quality Not available.
Flu Activity Not available.
METAR KSRQ 062353Z AUTO 01011KT 10SM BKN014 BKN045 OVC060 21/17 A3018 RMK AO2 SLP220 T02060172 10239 20206 53012

More Conditions Fewer Conditions

Pressure 30.18 in
Visibility 10.0 miles
Clouds Mostly Cloudy 1400 ft
Mostly Cloudy 4500 ft
Overcast 6000 ft
Heat Index 71 °F
Dew Point 65 °F
Humidity 81%
Rainfall in
Snow Depth Not available.
UV 0 out of 12
Pollen 9.90 out of 12
Air Quality Not available.
Flu Activity Not available.
METAR KSRQ 062353Z AUTO 01011KT 10SM BKN014 BKN045 OVC060 21/17 A3018 RMK AO2 SLP220 T02060172 10239 20206 53012

More Conditions Fewer Conditions

10-Day Weather Forecast

Almanac

Astronomy

Mar. 06, 2015 Rise Set
Actual Time
Civil Twilight
Nautical Twilight
Astronomical Twilight
Moon
Length of Visible Light
Length of Day
Tomorrow will be .
, % of the Moon is Illuminated

Today's Extremes

State Highs State Lows

Community

WunderPhotos

Upload Photos

1,803,469 photos uploaded!

WunderBlogs® & News

Nearby

Air Quality

  Air Quality AQ Index Pollutant
Not available.

Snow Depth

Station Depth Elevation

Earthquake Activity

City Distance Mag. Time & Date
Minimum magnitude displayed is 2.5.

Coastal Water Temperatures

Place Temperature

Nearby Weather Stations